sensor_id;sensor_type;location;lat;lon;timestamp;P1;durP1;ratioP1;P2;durP2;ratioP2
61685;SDS011;47592;45.904;8.978;2023-12-20T00:00:07;15.57;;;8.43;;
61685;SDS011;47592;45.904;8.978;2023-12-20T00:02:33;15.07;;;9.15;;
61685;SDS011;47592;45.904;8.978;2023-12-20T00:04:59;16.25;;;8.80;;
61685;SDS011;47592;45.904;8.978;2023-12-20T00:07:24;13.38;;;8.40;;
61685;SDS011;47592;45.904;8.978;2023-12-20T00:09:50;14.00;;;8.50;;
61685;SDS011;47592;45.904;8.978;2023-12-20T00:12:18;15.18;;;9.02;;
61685;SDS011;47592;45.904;8.978;2023-12-20T00:14:45;13.90;;;8.20;;
61685;SDS011;47592;45.904;8.978;2023-12-20T00:17:11;15.65;;;9.15;;
61685;SDS011;47592;45.904;8.978;2023-12-20T00:19:36;16.55;;;9.38;;
61685;SDS011;47592;45.904;8.978;2023-12-20T00:22:02;14.32;;;8.52;;
61685;SDS011;47592;45.904;8.978;2023-12-20T00:24:29;15.43;;;8.52;;
61685;SDS011;47592;45.904;8.978;2023-12-20T00:26:57;14.38;;;8.90;;
61685;SDS011;47592;45.904;8.978;2023-12-20T00:29:23;14.35;;;8.80;;
61685;SDS011;47592;45.904;8.978;2023-12-20T00:31:48;14.90;;;8.40;;
61685;SDS011;47592;45.904;8.978;2023-12-20T00:34:13;16.80;;;8.60;;
61685;SDS011;47592;45.904;8.978;2023-12-20T00:36:39;16.02;;;8.70;;
61685;SDS011;47592;45.904;8.978;2023-12-20T00:39:04;14.75;;;9.05;;
61685;SDS011;47592;45.904;8.978;2023-12-20T00:41:30;15.43;;;8.65;;
61685;SDS011;47592;45.904;8.978;2023-12-20T00:43:55;14.73;;;8.48;;
61685;SDS011;47592;45.904;8.978;2023-12-20T00:46:22;18.17;;;9.27;;
61685;SDS011;47592;45.904;8.978;2023-12-20T00:48:47;12.98;;;7.78;;
61685;SDS011;47592;45.904;8.978;2023-12-20T00:51:12;16.98;;;8.55;;
61685;SDS011;47592;45.904;8.978;2023-12-20T00:53:38;14.85;;;8.73;;
61685;SDS011;47592;45.904;8.978;2023-12-20T00:56:06;15.15;;;8.38;;
61685;SDS011;47592;45.904;8.978;2023-12-20T00:58:31;15.85;;;8.05;;
61685;SDS011;47592;45.904;8.978;2023-12-20T01:00:59;12.60;;;8.43;;
61685;SDS011;47592;45.904;8.978;2023-12-20T01:03:24;14.60;;;8.70;;
61685;SDS011;47592;45.904;8.978;2023-12-20T01:05:50;13.48;;;7.82;;
61685;SDS011;47592;45.904;8.978;2023-12-20T01:08:18;13.82;;;7.40;;
61685;SDS011;47592;45.904;8.978;2023-12-20T01:10:43;12.65;;;7.85;;
61685;SDS011;47592;45.904;8.978;2023-12-20T01:13:08;11.68;;;6.93;;
61685;SDS011;47592;45.904;8.978;2023-12-20T01:15:34;13.60;;;7.72;;
61685;SDS011;47592;45.904;8.978;2023-12-20T01:17:59;12.10;;;7.03;;
61685;SDS011;47592;45.904;8.978;2023-12-20T01:20:24;13.00;;;8.15;;
61685;SDS011;47592;45.904;8.978;2023-12-20T01:22:52;11.60;;;7.40;;
61685;SDS011;47592;45.904;8.978;2023-12-20T01:25:20;11.45;;;7.07;;
61685;SDS011;47592;45.904;8.978;2023-12-20T01:27:46;10.85;;;6.95;;
61685;SDS011;47592;45.904;8.978;2023-12-20T01:30:11;11.52;;;7.35;;
61685;SDS011;47592;45.904;8.978;2023-12-20T01:32:37;13.80;;;7.53;;
61685;SDS011;47592;45.904;8.978;2023-12-20T01:35:02;13.02;;;7.63;;
61685;SDS011;47592;45.904;8.978;2023-12-20T01:37:28;13.35;;;7.32;;
61685;SDS011;47592;45.904;8.978;2023-12-20T01:39:54;15.40;;;8.07;;
61685;SDS011;47592;45.904;8.978;2023-12-20T01:42:19;11.68;;;7.45;;
61685;SDS011;47592;45.904;8.978;2023-12-20T01:44:45;16.90;;;7.70;;
61685;SDS011;47592;45.904;8.978;2023-12-20T01:47:12;14.15;;;7.10;;
61685;SDS011;47592;45.904;8.978;2023-12-20T01:49:38;16.17;;;7.53;;
61685;SDS011;47592;45.904;8.978;2023-12-20T01:52:04;15.02;;;7.45;;
61685;SDS011;47592;45.904;8.978;2023-12-20T01:54:32;14.57;;;7.55;;
61685;SDS011;47592;45.904;8.978;2023-12-20T01:57:00;11.90;;;7.10;;
61685;SDS011;47592;45.904;8.978;2023-12-20T01:59:28;13.80;;;7.28;;
61685;SDS011;47592;45.904;8.978;2023-12-20T02:01:59;15.30;;;7.40;;
61685;SDS011;47592;45.904;8.978;2023-12-20T02:04:25;13.95;;;7.45;;
61685;SDS011;47592;45.904;8.978;2023-12-20T02:06:52;12.20;;;7.13;;
61685;SDS011;47592;45.904;8.978;2023-12-20T02:09:20;13.02;;;7.60;;
61685;SDS011;47592;45.904;8.978;2023-12-20T02:11:48;10.10;;;6.57;;
61685;SDS011;47592;45.904;8.978;2023-12-20T02:14:16;11.55;;;6.78;;
61685;SDS011;47592;45.904;8.978;2023-12-20T02:16:42;12.82;;;7.22;;
61685;SDS011;47592;45.904;8.978;2023-12-20T02:19:09;13.55;;;7.35;;
61685;SDS011;47592;45.904;8.978;2023-12-20T02:21:38;14.02;;;7.63;;
61685;SDS011;47592;45.904;8.978;2023-12-20T02:24:06;15.82;;;7.72;;
61685;SDS011;47592;45.904;8.978;2023-12-20T02:26:34;12.38;;;7.32;;
61685;SDS011;47592;45.904;8.978;2023-12-20T02:28:59;11.20;;;6.93;;
61685;SDS011;47592;45.904;8.978;2023-12-20T02:31:28;11.60;;;6.68;;
61685;SDS011;47592;45.904;8.978;2023-12-20T02:33:56;11.80;;;6.63;;
61685;SDS011;47592;45.904;8.978;2023-12-20T02:36:23;12.45;;;6.53;;
61685;SDS011;47592;45.904;8.978;2023-12-20T02:38:49;12.18;;;6.30;;
61685;SDS011;47592;45.904;8.978;2023-12-20T02:41:16;10.75;;;6.80;;
61685;SDS011;47592;45.904;8.978;2023-12-20T02:43:43;10.85;;;6.60;;
61685;SDS011;47592;45.904;8.978;2023-12-20T02:46:09;12.23;;;7.47;;
61685;SDS011;47592;45.904;8.978;2023-12-20T02:48:34;11.90;;;7.05;;
61685;SDS011;47592;45.904;8.978;2023-12-20T02:50:59;12.90;;;7.50;;
61685;SDS011;47592;45.904;8.978;2023-12-20T02:53:25;10.23;;;6.53;;
61685;SDS011;47592;45.904;8.978;2023-12-20T02:55:53;12.70;;;7.15;;
61685;SDS011;47592;45.904;8.978;2023-12-20T02:58:20;12.85;;;6.70;;
61685;SDS011;47592;45.904;8.978;2023-12-20T03:00:46;10.77;;;6.35;;
61685;SDS011;47592;45.904;8.978;2023-12-20T03:03:11;14.10;;;7.55;;
61685;SDS011;47592;45.904;8.978;2023-12-20T03:05:36;13.25;;;7.32;;
61685;SDS011;47592;45.904;8.978;2023-12-20T03:08:02;11.05;;;7.05;;
61685;SDS011;47592;45.904;8.978;2023-12-20T03:10:27;12.57;;;6.65;;
61685;SDS011;47592;45.904;8.978;2023-12-20T03:12:53;11.20;;;6.68;;
61685;SDS011;47592;45.904;8.978;2023-12-20T03:15:21;12.13;;;6.97;;
61685;SDS011;47592;45.904;8.978;2023-12-20T03:17:48;14.07;;;7.88;;
61685;SDS011;47592;45.904;8.978;2023-12-20T03:20:14;11.60;;;6.38;;
61685;SDS011;47592;45.904;8.978;2023-12-20T03:22:39;11.57;;;6.47;;
61685;SDS011;47592;45.904;8.978;2023-12-20T03:25:07;12.50;;;7.45;;
61685;SDS011;47592;45.904;8.978;2023-12-20T03:27:36;10.90;;;6.20;;
61685;SDS011;47592;45.904;8.978;2023-12-20T03:30:04;13.93;;;6.70;;
61685;SDS011;47592;45.904;8.978;2023-12-20T03:32:31;11.25;;;6.05;;
61685;SDS011;47592;45.904;8.978;2023-12-20T03:34:56;11.55;;;6.90;;
61685;SDS011;47592;45.904;8.978;2023-12-20T03:37:22;14.10;;;6.88;;
61685;SDS011;47592;45.904;8.978;2023-12-20T03:39:48;12.75;;;6.68;;
61685;SDS011;47592;45.904;8.978;2023-12-20T03:42:13;11.57;;;6.45;;
61685;SDS011;47592;45.904;8.978;2023-12-20T03:44:39;11.45;;;6.82;;
61685;SDS011;47592;45.904;8.978;2023-12-20T03:47:05;12.98;;;6.80;;
61685;SDS011;47592;45.904;8.978;2023-12-20T03:49:31;11.68;;;6.55;;
61685;SDS011;47592;45.904;8.978;2023-12-20T03:51:58;15.95;;;6.60;;
61685;SDS011;47592;45.904;8.978;2023-12-20T03:54:24;11.23;;;6.22;;
61685;SDS011;47592;45.904;8.978;2023-12-20T03:56:49;10.48;;;6.00;;
61685;SDS011;47592;45.904;8.978;2023-12-20T03:59:15;10.25;;;6.28;;
61685;SDS011;47592;45.904;8.978;2023-12-20T04:01:43;11.07;;;6.05;;
61685;SDS011;47592;45.904;8.978;2023-12-20T04:04:11;12.82;;;7.18;;
61685;SDS011;47592;45.904;8.978;2023-12-20T04:06:39;10.68;;;6.68;;
61685;SDS011;47592;45.904;8.978;2023-12-20T04:09:07;10.88;;;6.43;;
61685;SDS011;47592;45.904;8.978;2023-12-20T04:11:36;10.60;;;6.18;;
61685;SDS011;47592;45.904;8.978;2023-12-20T04:14:02;12.18;;;6.70;;
61685;SDS011;47592;45.904;8.978;2023-12-20T04:16:27;10.93;;;6.50;;
61685;SDS011;47592;45.904;8.978;2023-12-20T04:18:55;13.77;;;6.82;;
61685;SDS011;47592;45.904;8.978;2023-12-20T04:21:20;12.68;;;7.05;;
61685;SDS011;47592;45.904;8.978;2023-12-20T04:23:48;12.27;;;6.78;;
61685;SDS011;47592;45.904;8.978;2023-12-20T04:26:13;10.82;;;6.60;;
61685;SDS011;47592;45.904;8.978;2023-12-20T04:28:38;11.85;;;6.15;;
61685;SDS011;47592;45.904;8.978;2023-12-20T04:31:08;11.57;;;6.28;;
61685;SDS011;47592;45.904;8.978;2023-12-20T04:33:34;10.35;;;6.03;;
61685;SDS011;47592;45.904;8.978;2023-12-20T04:35:59;9.95;;;6.32;;
61685;SDS011;47592;45.904;8.978;2023-12-20T04:38:25;9.30;;;5.75;;
61685;SDS011;47592;45.904;8.978;2023-12-20T04:40:51;9.50;;;5.93;;
61685;SDS011;47592;45.904;8.978;2023-12-20T04:43:18;10.20;;;5.88;;
61685;SDS011;47592;45.904;8.978;2023-12-20T04:45:46;10.75;;;5.80;;
61685;SDS011;47592;45.904;8.978;2023-12-20T04:48:12;10.68;;;6.07;;
61685;SDS011;47592;45.904;8.978;2023-12-20T04:50:40;9.95;;;5.80;;
61685;SDS011;47592;45.904;8.978;2023-12-20T04:53:05;11.55;;;6.55;;
61685;SDS011;47592;45.904;8.978;2023-12-20T04:55:30;11.50;;;7.00;;
61685;SDS011;47592;45.904;8.978;2023-12-20T04:57:58;10.85;;;6.28;;
61685;SDS011;47592;45.904;8.978;2023-12-20T05:00:24;12.95;;;6.80;;
61685;SDS011;47592;45.904;8.978;2023-12-20T05:02:49;10.32;;;6.53;;
61685;SDS011;47592;45.904;8.978;2023-12-20T05:05:17;12.43;;;6.80;;
61685;SDS011;47592;45.904;8.978;2023-12-20T05:07:45;14.60;;;7.70;;
61685;SDS011;47592;45.904;8.978;2023-12-20T05:10:12;11.18;;;6.47;;
61685;SDS011;47592;45.904;8.978;2023-12-20T05:12:40;14.25;;;7.38;;
61685;SDS011;47592;45.904;8.978;2023-12-20T05:15:08;11.10;;;6.65;;
61685;SDS011;47592;45.904;8.978;2023-12-20T05:17:36;11.30;;;6.72;;
61685;SDS011;47592;45.904;8.978;2023-12-20T05:20:01;10.77;;;7.00;;
61685;SDS011;47592;45.904;8.978;2023-12-20T05:22:27;10.75;;;6.57;;
61685;SDS011;47592;45.904;8.978;2023-12-20T05:24:55;11.50;;;6.47;;
61685;SDS011;47592;45.904;8.978;2023-12-20T05:27:20;9.77;;;6.03;;
61685;SDS011;47592;45.904;8.978;2023-12-20T05:29:46;10.60;;;5.82;;
61685;SDS011;47592;45.904;8.978;2023-12-20T05:32:11;9.40;;;5.95;;
61685;SDS011;47592;45.904;8.978;2023-12-20T05:34:39;12.18;;;5.90;;
61685;SDS011;47592;45.904;8.978;2023-12-20T05:37:04;10.07;;;6.10;;
61685;SDS011;47592;45.904;8.978;2023-12-20T05:39:29;9.55;;;5.70;;
61685;SDS011;47592;45.904;8.978;2023-12-20T05:41:56;11.02;;;5.80;;
61685;SDS011;47592;45.904;8.978;2023-12-20T05:44:23;10.98;;;5.93;;
61685;SDS011;47592;45.904;8.978;2023-12-20T05:46:51;11.90;;;6.45;;
61685;SDS011;47592;45.904;8.978;2023-12-20T05:49:16;13.15;;;6.57;;
61685;SDS011;47592;45.904;8.978;2023-12-20T05:51:42;8.90;;;5.72;;
61685;SDS011;47592;45.904;8.978;2023-12-20T05:54:07;11.80;;;6.40;;
61685;SDS011;47592;45.904;8.978;2023-12-20T05:56:34;11.90;;;6.82;;
61685;SDS011;47592;45.904;8.978;2023-12-20T05:59:05;10.35;;;6.50;;
61685;SDS011;47592;45.904;8.978;2023-12-20T06:01:30;11.27;;;6.47;;
61685;SDS011;47592;45.904;8.978;2023-12-20T06:03:58;11.07;;;5.90;;
61685;SDS011;47592;45.904;8.978;2023-12-20T06:06:25;10.77;;;6.65;;
61685;SDS011;47592;45.904;8.978;2023-12-20T06:08:51;12.95;;;6.82;;
61685;SDS011;47592;45.904;8.978;2023-12-20T06:11:16;12.88;;;6.97;;
61685;SDS011;47592;45.904;8.978;2023-12-20T06:13:42;12.25;;;7.07;;
61685;SDS011;47592;45.904;8.978;2023-12-20T06:16:09;10.73;;;6.22;;
61685;SDS011;47592;45.904;8.978;2023-12-20T06:18:35;12.38;;;5.82;;
61685;SDS011;47592;45.904;8.978;2023-12-20T06:21:02;11.05;;;6.50;;
61685;SDS011;47592;45.904;8.978;2023-12-20T06:23:27;12.63;;;6.72;;
61685;SDS011;47592;45.904;8.978;2023-12-20T06:25:55;12.20;;;6.80;;
61685;SDS011;47592;45.904;8.978;2023-12-20T06:28:23;11.25;;;7.10;;
61685;SDS011;47592;45.904;8.978;2023-12-20T06:30:48;12.50;;;7.35;;
61685;SDS011;47592;45.904;8.978;2023-12-20T06:33:14;11.77;;;7.50;;
61685;SDS011;47592;45.904;8.978;2023-12-20T06:35:40;13.77;;;7.55;;
61685;SDS011;47592;45.904;8.978;2023-12-20T06:38:05;11.82;;;7.35;;
61685;SDS011;47592;45.904;8.978;2023-12-20T06:40:33;13.50;;;7.63;;
61685;SDS011;47592;45.904;8.978;2023-12-20T06:42:58;12.63;;;7.80;;
61685;SDS011;47592;45.904;8.978;2023-12-20T06:45:24;13.30;;;7.32;;
61685;SDS011;47592;45.904;8.978;2023-12-20T06:47:50;11.18;;;7.63;;
61685;SDS011;47592;45.904;8.978;2023-12-20T06:50:17;13.18;;;7.75;;
61685;SDS011;47592;45.904;8.978;2023-12-20T06:52:45;15.35;;;8.10;;
61685;SDS011;47592;45.904;8.978;2023-12-20T06:55:10;17.15;;;7.60;;
61685;SDS011;47592;45.904;8.978;2023-12-20T06:57:36;13.68;;;7.78;;
61685;SDS011;47592;45.904;8.978;2023-12-20T07:00:02;13.23;;;7.88;;
61685;SDS011;47592;45.904;8.978;2023-12-20T07:02:28;12.45;;;7.78;;
61685;SDS011;47592;45.904;8.978;2023-12-20T07:04:56;13.95;;;7.47;;
61685;SDS011;47592;45.904;8.978;2023-12-20T07:07:24;12.38;;;7.35;;
61685;SDS011;47592;45.904;8.978;2023-12-20T07:09:49;12.48;;;6.95;;
61685;SDS011;47592;45.904;8.978;2023-12-20T07:12:17;10.70;;;6.75;;
61685;SDS011;47592;45.904;8.978;2023-12-20T07:14:45;12.40;;;6.95;;
61685;SDS011;47592;45.904;8.978;2023-12-20T07:17:14;11.48;;;7.07;;
61685;SDS011;47592;45.904;8.978;2023-12-20T07:19:42;12.30;;;7.28;;
61685;SDS011;47592;45.904;8.978;2023-12-20T07:22:10;12.20;;;7.10;;
61685;SDS011;47592;45.904;8.978;2023-12-20T07:24:36;11.88;;;7.05;;
61685;SDS011;47592;45.904;8.978;2023-12-20T07:27:03;11.30;;;7.68;;
61685;SDS011;47592;45.904;8.978;2023-12-20T07:29:29;12.27;;;7.60;;
61685;SDS011;47592;45.904;8.978;2023-12-20T07:31:54;15.88;;;8.02;;
61685;SDS011;47592;45.904;8.978;2023-12-20T07:34:23;14.30;;;7.72;;
61685;SDS011;47592;45.904;8.978;2023-12-20T07:36:50;12.65;;;7.50;;
61685;SDS011;47592;45.904;8.978;2023-12-20T07:39:18;12.65;;;7.65;;
61685;SDS011;47592;45.904;8.978;2023-12-20T07:41:48;14.35;;;8.18;;
61685;SDS011;47592;45.904;8.978;2023-12-20T07:44:16;10.65;;;7.10;;
61685;SDS011;47592;45.904;8.978;2023-12-20T07:46:41;11.77;;;7.22;;
61685;SDS011;47592;45.904;8.978;2023-12-20T07:49:06;12.85;;;7.80;;
61685;SDS011;47592;45.904;8.978;2023-12-20T07:51:33;15.05;;;7.80;;
61685;SDS011;47592;45.904;8.978;2023-12-20T07:53:58;14.10;;;7.00;;
61685;SDS011;47592;45.904;8.978;2023-12-20T07:56:26;12.60;;;7.35;;
61685;SDS011;47592;45.904;8.978;2023-12-20T07:58:56;12.30;;;7.18;;
61685;SDS011;47592;45.904;8.978;2023-12-20T08:01:22;14.88;;;7.85;;
61685;SDS011;47592;45.904;8.978;2023-12-20T08:03:50;14.57;;;7.93;;
61685;SDS011;47592;45.904;8.978;2023-12-20T08:06:18;13.63;;;8.15;;
61685;SDS011;47592;45.904;8.978;2023-12-20T08:08:43;13.40;;;7.45;;
61685;SDS011;47592;45.904;8.978;2023-12-20T08:11:08;14.23;;;7.25;;
61685;SDS011;47592;45.904;8.978;2023-12-20T08:13:34;12.95;;;7.40;;
61685;SDS011;47592;45.904;8.978;2023-12-20T08:15:59;13.13;;;7.65;;
61685;SDS011;47592;45.904;8.978;2023-12-20T08:18:25;12.77;;;7.43;;
61685;SDS011;47592;45.904;8.978;2023-12-20T08:20:52;12.38;;;7.72;;
61685;SDS011;47592;45.904;8.978;2023-12-20T08:23:19;11.95;;;7.43;;
61685;SDS011;47592;45.904;8.978;2023-12-20T08:25:45;12.23;;;7.35;;
61685;SDS011;47592;45.904;8.978;2023-12-20T08:28:11;12.52;;;7.30;;
61685;SDS011;47592;45.904;8.978;2023-12-20T08:30:36;12.05;;;7.78;;
61685;SDS011;47592;45.904;8.978;2023-12-20T08:33:01;12.48;;;7.90;;
61685;SDS011;47592;45.904;8.978;2023-12-20T08:35:27;14.27;;;7.35;;
61685;SDS011;47592;45.904;8.978;2023-12-20T08:37:58;11.55;;;6.53;;
61685;SDS011;47592;45.904;8.978;2023-12-20T08:40:23;14.63;;;6.93;;
61685;SDS011;47592;45.904;8.978;2023-12-20T08:42:51;12.40;;;7.50;;
61685;SDS011;47592;45.904;8.978;2023-12-20T08:45:16;14.80;;;7.78;;
61685;SDS011;47592;45.904;8.978;2023-12-20T08:47:44;14.70;;;7.90;;
61685;SDS011;47592;45.904;8.978;2023-12-20T08:50:10;12.07;;;7.68;;
61685;SDS011;47592;45.904;8.978;2023-12-20T08:52:35;10.70;;;7.72;;
61685;SDS011;47592;45.904;8.978;2023-12-20T08:55:03;11.52;;;7.65;;
61685;SDS011;47592;45.904;8.978;2023-12-20T08:57:29;15.07;;;8.05;;
61685;SDS011;47592;45.904;8.978;2023-12-20T08:59:56;11.80;;;7.60;;
61685;SDS011;47592;45.904;8.978;2023-12-20T09:02:22;13.43;;;8.68;;
61685;SDS011;47592;45.904;8.978;2023-12-20T09:04:47;15.73;;;8.70;;
61685;SDS011;47592;45.904;8.978;2023-12-20T09:07:25;11.93;;;8.07;;
61685;SDS011;47592;45.904;8.978;2023-12-20T09:09:51;16.33;;;8.85;;
61685;SDS011;47592;45.904;8.978;2023-12-20T09:12:18;14.27;;;8.27;;
61685;SDS011;47592;45.904;8.978;2023-12-20T09:14:44;13.57;;;8.15;;
61685;SDS011;47592;45.904;8.978;2023-12-20T09:17:10;11.15;;;7.00;;
61685;SDS011;47592;45.904;8.978;2023-12-20T09:19:38;10.40;;;6.55;;
61685;SDS011;47592;45.904;8.978;2023-12-20T09:22:04;14.48;;;7.60;;
61685;SDS011;47592;45.904;8.978;2023-12-20T09:24:30;16.27;;;8.63;;
61685;SDS011;47592;45.904;8.978;2023-12-20T09:26:55;13.02;;;7.65;;
61685;SDS011;47592;45.904;8.978;2023-12-20T09:29:26;12.23;;;7.22;;
61685;SDS011;47592;45.904;8.978;2023-12-20T09:31:51;14.48;;;8.38;;
61685;SDS011;47592;45.904;8.978;2023-12-20T09:34:19;15.85;;;8.70;;
61685;SDS011;47592;45.904;8.978;2023-12-20T09:36:44;13.23;;;8.23;;
61685;SDS011;47592;45.904;8.978;2023-12-20T09:39:16;14.00;;;7.95;;
61685;SDS011;47592;45.904;8.978;2023-12-20T09:44:25;19.70;;;8.18;;
61685;SDS011;47592;45.904;8.978;2023-12-20T09:46:51;16.10;;;8.05;;
61685;SDS011;47592;45.904;8.978;2023-12-20T09:49:18;14.60;;;6.97;;
61685;SDS011;47592;45.904;8.978;2023-12-20T09:51:43;11.63;;;6.55;;
61685;SDS011;47592;45.904;8.978;2023-12-20T09:54:16;9.55;;;6.22;;
61685;SDS011;47592;45.904;8.978;2023-12-20T09:56:45;10.60;;;6.53;;
61685;SDS011;47592;45.904;8.978;2023-12-20T09:59:10;10.52;;;6.45;;
61685;SDS011;47592;45.904;8.978;2023-12-20T10:01:36;9.98;;;6.63;;
61685;SDS011;47592;45.904;8.978;2023-12-20T10:04:06;11.45;;;6.93;;
61685;SDS011;47592;45.904;8.978;2023-12-20T10:06:35;9.20;;;6.45;;
61685;SDS011;47592;45.904;8.978;2023-12-20T10:09:06;10.75;;;7.47;;
61685;SDS011;47592;45.904;8.978;2023-12-20T10:11:32;11.43;;;7.57;;
61685;SDS011;47592;45.904;8.978;2023-12-20T10:14:01;10.35;;;6.25;;
61685;SDS011;47592;45.904;8.978;2023-12-20T10:16:29;9.60;;;6.00;;
61685;SDS011;47592;45.904;8.978;2023-12-20T10:18:55;10.00;;;6.45;;
61685;SDS011;47592;45.904;8.978;2023-12-20T10:21:25;9.75;;;6.07;;
61685;SDS011;47592;45.904;8.978;2023-12-20T10:23:54;10.55;;;6.53;;
61685;SDS011;47592;45.904;8.978;2023-12-20T10:26:20;10.27;;;5.93;;
61685;SDS011;47592;45.904;8.978;2023-12-20T10:28:55;10.02;;;6.38;;
61685;SDS011;47592;45.904;8.978;2023-12-20T10:31:26;11.15;;;7.20;;
61685;SDS011;47592;45.904;8.978;2023-12-20T10:34:00;10.75;;;6.70;;
61685;SDS011;47592;45.904;8.978;2023-12-20T10:36:29;12.43;;;7.20;;
61685;SDS011;47592;45.904;8.978;2023-12-20T10:38:59;11.52;;;7.43;;
61685;SDS011;47592;45.904;8.978;2023-12-20T10:41:30;12.30;;;7.15;;
61685;SDS011;47592;45.904;8.978;2023-12-20T10:46:29;15.35;;;6.78;;
61685;SDS011;47592;45.904;8.978;2023-12-20T10:48:57;15.60;;;7.15;;
61685;SDS011;47592;45.904;8.978;2023-12-20T10:51:25;12.20;;;7.40;;
61685;SDS011;47592;45.904;8.978;2023-12-20T10:53:55;12.48;;;7.18;;
61685;SDS011;47592;45.904;8.978;2023-12-20T10:56:25;12.45;;;7.30;;
61685;SDS011;47592;45.904;8.978;2023-12-20T10:58:57;12.93;;;7.25;;
61685;SDS011;47592;45.904;8.978;2023-12-20T11:01:24;15.02;;;7.88;;
61685;SDS011;47592;45.904;8.978;2023-12-20T11:03:57;13.25;;;7.55;;
61685;SDS011;47592;45.904;8.978;2023-12-20T11:09:10;15.98;;;7.43;;
61685;SDS011;47592;45.904;8.978;2023-12-20T11:12:03;13.68;;;7.78;;
61685;SDS011;47592;45.904;8.978;2023-12-20T11:14:46;14.13;;;7.40;;
61685;SDS011;47592;45.904;8.978;2023-12-20T11:17:12;12.02;;;7.10;;
61685;SDS011;47592;45.904;8.978;2023-12-20T11:22:20;10.98;;;7.35;;
61685;SDS011;47592;45.904;8.978;2023-12-20T11:24:47;14.32;;;8.85;;
61685;SDS011;47592;45.904;8.978;2023-12-20T11:27:13;10.45;;;7.50;;
61685;SDS011;47592;45.904;8.978;2023-12-20T11:29:39;12.85;;;7.38;;
61685;SDS011;47592;45.904;8.978;2023-12-20T11:34:53;12.77;;;7.63;;
61685;SDS011;47592;45.904;8.978;2023-12-20T11:37:28;14.63;;;7.82;;
61685;SDS011;47592;45.904;8.978;2023-12-20T11:40:00;13.07;;;8.10;;
61685;SDS011;47592;45.904;8.978;2023-12-20T11:42:40;13.68;;;8.65;;
61685;SDS011;47592;45.904;8.978;2023-12-20T11:45:10;14.38;;;8.48;;
61685;SDS011;47592;45.904;8.978;2023-12-20T11:47:36;13.20;;;8.38;;
61685;SDS011;47592;45.904;8.978;2023-12-20T11:50:02;12.65;;;8.57;;
61685;SDS011;47592;45.904;8.978;2023-12-20T11:52:29;13.13;;;8.35;;
61685;SDS011;47592;45.904;8.978;2023-12-20T11:54:55;11.88;;;7.05;;
61685;SDS011;47592;45.904;8.978;2023-12-20T11:57:20;12.50;;;7.72;;
61685;SDS011;47592;45.904;8.978;2023-12-20T11:59:48;10.82;;;7.15;;
61685;SDS011;47592;45.904;8.978;2023-12-20T12:02:14;11.32;;;6.72;;
61685;SDS011;47592;45.904;8.978;2023-12-20T12:04:43;10.48;;;7.07;;
61685;SDS011;47592;45.904;8.978;2023-12-20T12:07:09;12.95;;;7.47;;
61685;SDS011;47592;45.904;8.978;2023-12-20T12:09:34;11.15;;;7.10;;
61685;SDS011;47592;45.904;8.978;2023-12-20T12:12:02;11.60;;;7.25;;
61685;SDS011;47592;45.904;8.978;2023-12-20T12:14:31;10.40;;;7.33;;
61685;SDS011;47592;45.904;8.978;2023-12-20T12:16:57;15.23;;;6.60;;
61685;SDS011;47592;45.904;8.978;2023-12-20T12:19:22;10.57;;;6.72;;
61685;SDS011;47592;45.904;8.978;2023-12-20T12:22:04;11.93;;;7.22;;
61685;SDS011;47592;45.904;8.978;2023-12-20T12:24:42;15.55;;;8.15;;
61685;SDS011;47592;45.904;8.978;2023-12-20T12:27:10;13.43;;;7.72;;
61685;SDS011;47592;45.904;8.978;2023-12-20T12:29:36;13.15;;;7.30;;
61685;SDS011;47592;45.904;8.978;2023-12-20T12:32:08;10.15;;;6.72;;
61685;SDS011;47592;45.904;8.978;2023-12-20T12:34:37;11.23;;;7.10;;
61685;SDS011;47592;45.904;8.978;2023-12-20T12:37:05;12.43;;;7.00;;
61685;SDS011;47592;45.904;8.978;2023-12-20T12:39:31;11.43;;;7.28;;
61685;SDS011;47592;45.904;8.978;2023-12-20T12:41:57;10.68;;;7.35;;
61685;SDS011;47592;45.904;8.978;2023-12-20T12:44:24;12.88;;;8.10;;
61685;SDS011;47592;45.904;8.978;2023-12-20T12:46:50;14.45;;;7.35;;
61685;SDS011;47592;45.904;8.978;2023-12-20T12:49:18;11.52;;;7.13;;
61685;SDS011;47592;45.904;8.978;2023-12-20T12:51:51;12.13;;;7.72;;
61685;SDS011;47592;45.904;8.978;2023-12-20T12:54:17;11.60;;;7.03;;
61685;SDS011;47592;45.904;8.978;2023-12-20T12:56:43;11.32;;;7.05;;
61685;SDS011;47592;45.904;8.978;2023-12-20T12:59:09;12.05;;;8.00;;
61685;SDS011;47592;45.904;8.978;2023-12-20T13:01:34;11.70;;;7.50;;
61685;SDS011;47592;45.904;8.978;2023-12-20T13:04:00;12.07;;;7.63;;
61685;SDS011;47592;45.904;8.978;2023-12-20T13:06:28;11.32;;;7.03;;
61685;SDS011;47592;45.904;8.978;2023-12-20T13:08:54;12.40;;;6.85;;
61685;SDS011;47592;45.904;8.978;2023-12-20T13:11:21;13.60;;;7.72;;
61685;SDS011;47592;45.904;8.978;2023-12-20T13:13:46;13.13;;;7.13;;
61685;SDS011;47592;45.904;8.978;2023-12-20T13:16:12;15.65;;;7.45;;
61685;SDS011;47592;45.904;8.978;2023-12-20T13:18:38;12.63;;;7.07;;
61685;SDS011;47592;45.904;8.978;2023-12-20T13:21:07;12.32;;;7.28;;
61685;SDS011;47592;45.904;8.978;2023-12-20T13:23:36;15.80;;;7.10;;
61685;SDS011;47592;45.904;8.978;2023-12-20T13:26:04;11.75;;;7.10;;
61685;SDS011;47592;45.904;8.978;2023-12-20T13:28:29;12.13;;;6.80;;
61685;SDS011;47592;45.904;8.978;2023-12-20T13:30:54;12.20;;;6.90;;
61685;SDS011;47592;45.904;8.978;2023-12-20T13:33:20;12.00;;;6.93;;
61685;SDS011;47592;45.904;8.978;2023-12-20T13:35:45;14.82;;;7.32;;
61685;SDS011;47592;45.904;8.978;2023-12-20T13:38:13;13.75;;;6.35;;
61685;SDS011;47592;45.904;8.978;2023-12-20T13:40:39;16.25;;;6.95;;
61685;SDS011;47592;45.904;8.978;2023-12-20T13:43:04;10.88;;;6.50;;
61685;SDS011;47592;45.904;8.978;2023-12-20T13:45:30;11.70;;;6.40;;
61685;SDS011;47592;45.904;8.978;2023-12-20T13:47:59;11.18;;;6.00;;
61685;SDS011;47592;45.904;8.978;2023-12-20T13:50:27;10.43;;;6.25;;
61685;SDS011;47592;45.904;8.978;2023-12-20T13:52:54;11.85;;;6.53;;
61685;SDS011;47592;45.904;8.978;2023-12-20T13:55:20;14.70;;;6.53;;
61685;SDS011;47592;45.904;8.978;2023-12-20T13:57:49;10.43;;;6.10;;
61685;SDS011;47592;45.904;8.978;2023-12-20T14:00:15;16.02;;;6.40;;
61685;SDS011;47592;45.904;8.978;2023-12-20T14:02:41;13.57;;;6.72;;
61685;SDS011;47592;45.904;8.978;2023-12-20T14:05:09;14.05;;;7.72;;
61685;SDS011;47592;45.904;8.978;2023-12-20T14:07:42;11.68;;;7.13;;
61685;SDS011;47592;45.904;8.978;2023-12-20T14:10:11;12.38;;;7.43;;
61685;SDS011;47592;45.904;8.978;2023-12-20T14:12:38;16.13;;;8.90;;
61685;SDS011;47592;45.904;8.978;2023-12-20T14:15:03;12.27;;;7.78;;
61685;SDS011;47592;45.904;8.978;2023-12-20T14:17:34;12.50;;;7.55;;
61685;SDS011;47592;45.904;8.978;2023-12-20T14:19:59;15.10;;;7.70;;
61685;SDS011;47592;45.904;8.978;2023-12-20T14:22:25;13.02;;;7.63;;
61685;SDS011;47592;45.904;8.978;2023-12-20T14:24:52;16.27;;;8.63;;
61685;SDS011;47592;45.904;8.978;2023-12-20T14:27:22;16.15;;;8.52;;
61685;SDS011;47592;45.904;8.978;2023-12-20T14:29:49;13.48;;;8.13;;
61685;SDS011;47592;45.904;8.978;2023-12-20T14:32:14;15.60;;;8.25;;
61685;SDS011;47592;45.904;8.978;2023-12-20T14:34:41;16.42;;;7.80;;
61685;SDS011;47592;45.904;8.978;2023-12-20T14:37:06;13.23;;;8.25;;
61685;SDS011;47592;45.904;8.978;2023-12-20T14:39:34;13.88;;;8.35;;
61685;SDS011;47592;45.904;8.978;2023-12-20T14:42:04;15.50;;;7.85;;
61685;SDS011;47592;45.904;8.978;2023-12-20T14:44:32;17.50;;;8.23;;
61685;SDS011;47592;45.904;8.978;2023-12-20T14:47:02;15.85;;;7.93;;